createdAt,value
2019-04-27T00:00:49.869Z,4.87
2019-04-27T00:03:41.209Z,4.47
2019-04-27T00:06:13.417Z,4.70
2019-04-27T00:08:49.347Z,4.87
2019-04-27T00:11:20.127Z,4.63
2019-04-27T00:13:49.117Z,4.60
2019-04-27T00:16:25.918Z,5.40
2019-04-27T00:19:13.100Z,4.30
2019-04-27T00:21:59.030Z,4.47
2019-04-27T00:24:27.921Z,4.70
2019-04-27T00:26:56.812Z,4.67
2019-04-27T00:29:26.007Z,4.87
2019-04-27T00:31:55.804Z,4.50
2019-04-27T00:34:24.919Z,4.70
2019-04-27T00:36:55.451Z,4.93
2019-04-27T00:39:33.024Z,4.33
2019-04-27T00:42:03.293Z,4.50
2019-04-27T00:44:33.789Z,4.90
2019-04-27T00:47:05.916Z,4.83
2019-04-27T00:49:35.081Z,4.73
2019-04-27T00:52:04.543Z,5.47
2019-04-27T00:54:34.000Z,4.40
2019-04-27T00:57:04.708Z,4.80
2019-04-27T00:59:35.237Z,4.90
2019-04-27T01:02:16.593Z,4.77
2019-04-27T01:04:47.319Z,4.53
2019-04-27T01:07:16.142Z,4.70
2019-04-27T01:09:45.318Z,4.90
2019-04-27T01:12:14.543Z,5.10
2019-04-27T01:14:45.168Z,4.70
2019-04-27T01:17:14.168Z,4.20
2019-04-27T01:19:43.159Z,4.90
2019-04-27T01:22:12.126Z,4.37
2019-04-27T01:24:41.044Z,4.33
2019-04-27T01:27:18.914Z,4.40
2019-04-27T01:29:50.024Z,4.40
2019-04-27T01:32:20.713Z,4.53
2019-04-27T01:34:49.899Z,4.67
2019-04-27T01:37:19.570Z,4.43
2019-04-27T01:39:50.402Z,4.80
2019-04-27T01:42:19.668Z,3.93
2019-04-27T01:44:50.869Z,4.80
2019-04-27T01:47:19.092Z,4.73
2019-04-27T01:49:49.523Z,4.27
2019-04-27T01:52:19.397Z,4.40
2019-04-27T01:54:49.520Z,4.70
2019-04-27T01:57:19.385Z,4.47
2019-04-27T01:59:48.947Z,4.53
2019-04-27T02:02:26.569Z,4.37
2019-04-27T02:05:12.052Z,4.10
2019-04-27T02:07:41.860Z,4.43
2019-04-27T02:10:11.960Z,4.53
2019-04-27T02:12:43.658Z,4.43
2019-04-27T02:15:11.791Z,5.00
2019-04-27T02:17:40.701Z,4.23
2019-04-27T02:20:09.834Z,4.20
2019-04-27T02:22:38.791Z,4.50
2019-04-27T02:25:09.079Z,4.60
2019-04-27T02:27:39.645Z,4.40
2019-04-27T02:30:22.874Z,4.50
2019-04-27T02:36:20.562Z,4.20
2019-04-27T02:38:49.423Z,4.50
2019-04-27T02:41:19.848Z,4.70
2019-04-27T02:44:02.595Z,4.13
2019-04-27T02:46:31.718Z,4.50
2019-04-27T02:49:06.303Z,4.63
2019-04-27T02:51:32.958Z,4.43
2019-04-27T02:54:02.254Z,4.73
2019-04-27T02:56:31.153Z,4.73
2019-04-27T02:59:00.037Z,3.97
2019-04-27T03:01:30.822Z,4.40
2019-04-27T03:04:00.481Z,4.20
2019-04-27T03:06:30.144Z,4.50
2019-04-27T03:09:00.544Z,4.23
2019-04-27T03:11:31.355Z,4.37
2019-04-27T03:14:15.080Z,4.57
2019-04-27T03:16:40.505Z,4.30
2019-04-27T03:19:18.803Z,4.43
2019-04-27T03:22:00.509Z,4.67
2019-04-27T03:24:49.591Z,4.37
2019-04-27T03:27:20.171Z,4.40
2019-04-27T03:29:49.918Z,4.70
2019-04-27T03:32:22.593Z,4.33
2019-04-27T03:34:52.285Z,4.60
2019-04-27T03:37:20.454Z,4.40
2019-04-27T03:39:49.902Z,4.37
2019-04-27T03:42:20.674Z,4.30
2019-04-27T03:44:50.385Z,4.53
2019-04-27T03:47:20.004Z,4.23
2019-04-27T03:49:50.598Z,4.23
2019-04-27T03:52:33.076Z,4.50
2019-04-27T03:55:15.691Z,4.57
2019-04-27T03:57:49.809Z,4.07
2019-04-27T04:00:23.504Z,4.17
2019-04-27T04:02:52.371Z,4.13
2019-04-27T04:05:21.391Z,4.50
2019-04-27T04:07:50.658Z,3.87
2019-04-27T04:10:20.130Z,4.50
2019-04-27T04:12:50.728Z,3.63
2019-04-27T04:15:29.684Z,4.27
2019-04-27T04:17:59.429Z,3.80
2019-04-27T04:20:30.376Z,4.27
2019-04-27T04:23:00.187Z,4.00
2019-04-27T04:25:32.661Z,4.43
2019-04-27T04:28:00.603Z,4.00
2019-04-27T04:30:30.444Z,3.90
2019-04-27T04:33:00.070Z,4.37
2019-04-27T04:35:32.523Z,3.90
2019-04-27T04:38:00.343Z,3.73
2019-04-27T04:40:33.925Z,4.20
2019-04-27T04:43:04.456Z,3.53
2019-04-27T04:45:39.324Z,3.90
2019-04-27T04:48:12.681Z,3.73
2019-04-27T04:50:41.575Z,4.07
2019-04-27T04:53:12.503Z,4.33
2019-04-27T04:55:40.993Z,4.00
2019-04-27T04:58:09.884Z,3.90
2019-04-27T05:00:40.028Z,3.77
2019-04-27T05:03:09.501Z,3.70
2019-04-27T05:05:41.096Z,3.30
2019-04-27T05:08:09.174Z,3.87
2019-04-27T05:10:39.534Z,3.73
2019-04-27T05:13:09.310Z,3.83
2019-04-27T05:15:39.456Z,4.00
2019-04-27T05:18:09.102Z,3.80
2019-04-27T05:20:42.908Z,4.30
2019-04-27T05:23:11.798Z,4.50
2019-04-27T05:25:40.692Z,4.37
2019-04-27T05:28:09.891Z,3.93
2019-04-27T05:30:39.199Z,3.63
2019-04-27T05:33:08.905Z,3.80
2019-04-27T05:35:40.693Z,4.03
2019-04-27T05:38:12.963Z,4.30
2019-04-27T05:40:39.847Z,4.30
2019-04-27T05:43:10.097Z,3.60
2019-04-27T05:46:21.183Z,3.53
2019-04-27T05:48:50.069Z,4.10
2019-04-27T05:51:19.772Z,4.00
2019-04-27T05:53:49.551Z,3.87
2019-04-27T05:56:19.302Z,4.10
2019-04-27T05:58:51.126Z,3.87
2019-04-27T06:01:19.751Z,3.53
2019-04-27T06:03:49.816Z,4.10
2019-04-27T06:06:19.715Z,3.77
2019-04-27T06:08:49.495Z,3.90
2019-04-27T06:11:19.625Z,3.80
2019-04-27T06:13:49.226Z,3.50
2019-04-27T06:16:19.506Z,3.10
2019-04-27T06:18:49.335Z,3.17
2019-04-27T06:21:19.570Z,3.70
2019-04-27T06:23:48.832Z,2.80
2019-04-27T06:26:20.032Z,3.20
2019-04-27T06:28:48.347Z,2.80
2019-04-27T06:31:17.268Z,2.73
2019-04-27T06:33:46.157Z,2.70
2019-04-27T06:36:15.047Z,2.87
2019-04-27T06:38:44.451Z,2.90
2019-04-27T06:41:13.342Z,2.77
2019-04-27T06:43:42.233Z,2.50
2019-04-27T06:46:11.096Z,2.80
2019-04-27T06:48:40.015Z,2.73
2019-04-27T06:51:09.673Z,2.60
2019-04-27T06:53:39.487Z,3.20
2019-04-27T06:56:10.372Z,3.10
2019-04-27T06:58:40.770Z,2.83
2019-04-27T07:01:10.988Z,2.30
2019-04-27T07:03:40.121Z,2.83
2019-04-27T07:06:09.981Z,2.60
2019-04-27T07:08:40.114Z,2.63
2019-04-27T07:11:11.519Z,2.70
2019-04-27T07:13:39.782Z,2.40
2019-04-27T07:16:09.607Z,2.57
2019-04-27T07:18:39.658Z,2.70
2019-04-27T07:21:16.917Z,2.50
2019-04-27T07:23:40.978Z,2.80
2019-04-27T07:26:09.843Z,2.43
2019-04-27T07:28:39.247Z,2.00
2019-04-27T07:31:09.670Z,2.47
2019-04-27T07:33:39.596Z,2.43
2019-04-27T07:36:09.046Z,2.40
2019-04-27T07:38:39.434Z,2.60
2019-04-27T07:41:09.669Z,2.90
2019-04-27T07:43:40.402Z,2.30
2019-04-27T07:46:09.292Z,2.77
2019-04-27T07:48:39.563Z,2.10
2019-04-27T07:51:08.992Z,2.30
2019-04-27T07:53:38.988Z,2.20
2019-04-27T07:56:10.578Z,2.10
2019-04-27T07:58:39.586Z,2.80
2019-04-27T08:01:09.299Z,2.50
2019-04-27T08:03:39.050Z,2.30
2019-04-27T08:06:08.486Z,2.27
2019-04-27T08:08:39.643Z,2.20
2019-04-27T08:11:09.161Z,2.20
2019-04-27T08:13:39.487Z,1.87
2019-04-27T08:16:08.716Z,2.37
2019-04-27T08:18:39.508Z,1.90
2019-04-27T08:21:08.931Z,1.93
2019-04-27T08:23:39.425Z,2.10
2019-04-27T08:26:10.085Z,1.80
2019-04-27T08:28:43.584Z,1.80
2019-04-27T08:31:20.053Z,1.67
2019-04-27T08:33:48.954Z,1.80
2019-04-27T08:36:19.023Z,1.90
2019-04-27T08:38:48.906Z,1.50
2019-04-27T08:41:19.664Z,1.70
2019-04-27T08:43:48.880Z,2.10
2019-04-27T08:46:18.643Z,1.77
2019-04-27T08:48:48.988Z,1.90
2019-04-27T08:51:19.598Z,1.60
2019-04-27T08:53:50.167Z,1.70
2019-04-27T08:56:19.461Z,1.50
2019-04-27T08:58:49.690Z,2.53
2019-04-27T09:01:20.724Z,5.33
2019-04-27T09:03:49.604Z,4.30
2019-04-27T09:06:19.012Z,1.70
2019-04-27T09:08:49.809Z,1.60
2019-04-27T09:11:29.096Z,1.40
2019-04-27T09:14:09.105Z,1.67
2019-04-27T09:16:59.633Z,1.40
2019-04-27T09:19:20.800Z,1.27
2019-04-27T09:22:12.724Z,1.27
2019-04-27T09:24:32.920Z,1.50
2019-04-27T09:27:01.813Z,1.30
2019-04-27T09:29:30.701Z,1.20
2019-04-27T09:32:01.755Z,1.23
2019-04-27T09:34:30.124Z,1.10
2019-04-27T09:36:59.013Z,1.37
2019-04-27T09:39:27.905Z,1.50
2019-04-27T09:41:57.260Z,1.43
2019-04-27T09:44:26.739Z,1.30
2019-04-27T09:46:56.151Z,1.10
2019-04-27T09:49:26.262Z,1.07
2019-04-27T09:51:55.787Z,0.97
2019-04-27T09:54:24.835Z,1.13
2019-04-27T09:56:53.727Z,0.83
2019-04-27T09:59:22.618Z,1.20
2019-04-27T10:01:51.511Z,1.33
2019-04-27T10:04:20.399Z,1.47
2019-04-27T10:06:49.294Z,1.07
2019-04-27T10:09:20.067Z,1.00
2019-04-27T10:11:48.712Z,1.73
2019-04-27T10:14:17.603Z,1.20
2019-04-27T10:16:46.959Z,1.10
2019-04-27T10:19:28.222Z,1.10
2019-04-27T10:21:46.840Z,1.60
2019-04-27T10:24:15.830Z,1.10
2019-04-27T10:26:44.721Z,1.10
2019-04-27T10:29:13.612Z,1.23
2019-04-27T10:31:42.503Z,1.10
2019-04-27T10:34:11.395Z,1.20
2019-04-27T10:36:40.291Z,0.83
2019-04-27T10:39:13.318Z,1.07
2019-04-27T10:41:42.370Z,0.90
2019-04-27T10:44:11.260Z,0.90
2019-04-27T10:46:40.151Z,1.23
2019-04-27T10:49:09.204Z,1.00
2019-04-27T10:51:38.143Z,1.00
2019-04-27T10:54:07.210Z,0.80
2019-04-27T10:56:36.263Z,0.90
2019-04-27T10:59:06.549Z,1.20
2019-04-27T11:01:36.263Z,0.93
2019-04-27T11:04:08.910Z,0.90
2019-04-27T11:06:45.105Z,1.17
2019-04-27T11:09:13.996Z,1.17
2019-04-27T11:11:42.990Z,1.43
2019-04-27T11:14:11.982Z,1.17
2019-04-27T11:16:40.976Z,1.07
2019-04-27T11:19:09.948Z,1.80
2019-04-27T11:21:38.861Z,1.03
2019-04-27T11:24:07.753Z,1.40
2019-04-27T11:26:36.643Z,0.87
2019-04-27T11:29:05.715Z,1.00
2019-04-27T11:31:36.249Z,1.10
2019-04-27T11:34:06.725Z,1.00
2019-04-27T11:36:37.431Z,0.93
2019-04-27T11:39:09.271Z,1.17
2019-04-27T11:41:38.182Z,0.80
2019-04-27T11:44:07.074Z,0.90
2019-04-27T11:46:36.067Z,0.80
2019-04-27T11:49:06.676Z,0.83
2019-04-27T11:51:36.615Z,1.27
2019-04-27T11:54:05.895Z,0.80
2019-04-27T11:56:36.222Z,0.73
2019-04-27T11:59:07.045Z,0.47
2019-04-27T12:01:36.070Z,0.43
2019-04-27T12:04:05.849Z,0.50
2019-04-27T12:06:35.903Z,0.60
2019-04-27T12:09:07.119Z,0.50
2019-04-27T12:11:36.357Z,0.70
2019-04-27T12:14:06.199Z,0.77
2019-04-27T12:16:36.170Z,0.80
2019-04-27T12:19:06.587Z,0.80
2019-04-27T12:21:36.197Z,0.70
2019-04-27T12:24:05.819Z,0.97
2019-04-27T12:26:45.051Z,0.97
2019-04-27T12:29:16.195Z,1.03
2019-04-27T12:31:48.751Z,1.07
2019-04-27T12:34:16.304Z,1.10
2019-04-27T12:36:45.915Z,1.00
2019-04-27T12:39:15.710Z,1.10
2019-04-27T12:41:46.198Z,2.00
2019-04-27T12:44:16.046Z,1.20
2019-04-27T12:46:45.087Z,1.00
2019-04-27T12:49:15.660Z,1.10
2019-04-27T12:51:45.637Z,0.90
2019-04-27T12:54:18.929Z,1.00
2019-04-27T12:56:49.432Z,0.97
2019-04-27T12:59:19.886Z,1.00
2019-04-27T13:01:48.778Z,1.00
2019-04-27T13:04:19.503Z,1.20
2019-04-27T13:06:48.403Z,0.80
2019-04-27T13:09:17.408Z,0.90
2019-04-27T13:11:46.391Z,0.80
2019-04-27T13:14:16.365Z,1.00
2019-04-27T13:16:47.515Z,0.90
2019-04-27T13:19:15.931Z,1.00
2019-04-27T13:21:46.807Z,0.93
2019-04-27T13:24:15.352Z,1.00
2019-04-27T13:26:45.640Z,1.07
2019-04-27T13:29:16.521Z,1.30
2019-04-27T13:31:45.300Z,1.00
2019-04-27T13:34:15.790Z,1.03
2019-04-27T13:36:45.692Z,1.00
2019-04-27T13:39:15.788Z,1.20
2019-04-27T13:41:46.317Z,1.20
2019-04-27T13:44:16.046Z,1.20
2019-04-27T13:47:02.918Z,1.40
2019-04-27T13:49:42.559Z,1.87
2019-04-27T13:52:13.066Z,1.73
2019-04-27T13:54:42.084Z,1.67
2019-04-27T13:57:10.975Z,1.77
2019-04-27T13:59:41.701Z,1.60
2019-04-27T14:02:10.580Z,2.00
2019-04-27T14:04:39.493Z,1.00
2019-04-27T14:07:09.054Z,0.70
2019-04-27T14:09:39.232Z,0.50
2019-04-27T14:12:13.026Z,0.37
2019-04-27T14:14:41.917Z,0.43
2019-04-27T14:17:10.911Z,0.50
2019-04-27T14:19:39.801Z,0.60
2019-04-27T14:22:09.162Z,0.67
2019-04-27T14:24:41.373Z,1.50
2019-04-27T14:27:10.915Z,0.80
2019-04-27T14:29:39.872Z,0.70
2019-04-27T14:32:08.866Z,0.63
2019-04-27T14:34:37.759Z,0.63
2019-04-27T14:37:08.519Z,0.70
2019-04-27T14:39:38.875Z,1.10
2019-04-27T14:42:08.375Z,1.00
2019-04-27T14:44:38.978Z,1.20
2019-04-27T14:47:08.167Z,1.13
2019-04-27T14:49:38.942Z,1.60
2019-04-27T14:52:09.489Z,1.70
2019-04-27T14:54:47.393Z,1.30
2019-04-27T14:57:09.206Z,1.00
2019-04-27T14:59:38.449Z,0.93
2019-04-27T15:02:08.678Z,1.30
2019-04-27T15:04:40.217Z,1.50
2019-04-27T15:07:08.805Z,1.50
2019-04-27T15:09:38.407Z,1.57
2019-04-27T15:12:07.408Z,1.60
2019-04-27T15:14:36.400Z,1.50
2019-04-27T15:17:06.826Z,1.60
2019-04-27T15:19:43.507Z,1.47
2019-04-27T15:22:19.722Z,1.37
2019-04-27T15:24:48.898Z,1.50
2019-04-27T15:27:16.728Z,1.50
2019-04-27T15:29:45.731Z,1.30
2019-04-27T15:32:33.606Z,1.40
2019-04-27T15:35:21.596Z,1.30
2019-04-27T15:37:55.279Z,1.57
2019-04-27T15:40:44.074Z,1.73
2019-04-27T15:43:13.871Z,1.50
2019-04-27T15:45:42.867Z,1.30
2019-04-27T15:48:11.756Z,1.50
2019-04-27T15:50:40.623Z,1.60
2019-04-27T15:53:12.503Z,1.67
2019-04-27T15:55:40.170Z,2.10
2019-04-27T15:58:09.855Z,1.40
2019-04-27T16:00:39.079Z,1.70
2019-04-27T16:03:09.676Z,1.80
2019-04-27T16:05:38.500Z,1.13
2019-04-27T16:08:13.025Z,1.50
2019-04-27T16:10:40.249Z,1.50
2019-04-27T16:13:13.426Z,1.20
2019-04-27T16:15:39.098Z,1.50
2019-04-27T16:18:08.800Z,1.17
2019-04-27T16:20:38.152Z,1.50
2019-04-27T16:23:08.763Z,1.83
2019-04-27T16:25:46.052Z,1.90
2019-04-27T16:28:09.641Z,1.63
2019-04-27T16:30:39.204Z,1.37
2019-04-27T16:33:08.691Z,1.80
2019-04-27T16:35:38.717Z,0.30
2019-04-27T16:38:09.656Z,0.20
2019-04-27T16:40:38.977Z,0.40
2019-04-27T16:43:08.992Z,0.50
2019-04-27T16:45:38.800Z,0.47
2019-04-27T16:48:09.091Z,0.60
2019-04-27T16:50:39.067Z,0.50
2019-04-27T16:53:10.736Z,0.53
2019-04-27T16:55:38.809Z,0.40
2019-04-27T16:58:11.092Z,0.30
2019-04-27T17:00:40.694Z,0.40
2019-04-27T17:03:09.402Z,0.50
2019-04-27T17:05:38.264Z,0.60
2019-04-27T17:08:13.934Z,0.70
2019-04-27T17:10:39.001Z,1.03
2019-04-27T17:13:12.994Z,0.90
2019-04-27T17:15:55.137Z,0.73
2019-04-27T17:18:40.871Z,0.60
2019-04-27T17:21:18.914Z,0.60
2019-04-27T17:23:40.903Z,0.60
2019-04-27T17:26:21.249Z,0.80
2019-04-27T17:28:50.623Z,0.83
2019-04-27T17:31:21.098Z,1.30
2019-04-27T17:33:53.214Z,1.10
2019-04-27T17:36:22.151Z,1.00
2019-04-27T17:38:51.255Z,1.20
2019-04-27T17:41:20.666Z,0.90
2019-04-27T17:43:50.160Z,0.70
2019-04-27T17:46:19.971Z,1.20
2019-04-27T17:48:50.197Z,1.20
2019-04-27T17:51:19.309Z,1.40
2019-04-27T17:53:49.906Z,1.47
2019-04-27T17:56:19.037Z,1.37
2019-04-27T17:58:48.783Z,1.13
2019-04-27T18:01:19.183Z,1.13
2019-04-27T18:06:29.570Z,1.37
2019-04-27T18:09:00.718Z,1.20
2019-04-27T18:11:28.758Z,1.30
2019-04-27T18:14:00.283Z,1.20
2019-04-27T18:16:34.160Z,1.13
2019-04-27T18:19:07.953Z,1.87
2019-04-27T18:21:35.827Z,1.20
2019-04-27T18:24:13.797Z,1.47
2019-04-27T18:26:49.255Z,1.10
2019-04-27T18:29:15.659Z,0.90
2019-04-27T18:31:46.338Z,1.20
2019-04-27T18:34:17.327Z,1.00
2019-04-27T18:36:46.386Z,1.20
2019-04-27T18:39:15.542Z,1.30
2019-04-27T18:41:49.739Z,1.20
2019-04-27T18:44:15.556Z,1.20
2019-04-27T18:46:53.794Z,1.67
2019-04-27T18:49:30.242Z,1.27
2019-04-27T18:52:23.507Z,1.20
2019-04-27T18:54:52.988Z,1.43
2019-04-27T18:57:24.482Z,1.20
2019-04-27T18:59:53.832Z,1.20
2019-04-27T19:02:26.698Z,1.50
2019-04-27T19:04:56.107Z,1.70
2019-04-27T19:07:29.012Z,1.57
2019-04-27T19:10:04.998Z,1.23
2019-04-27T19:12:36.509Z,1.20
2019-04-27T19:15:08.133Z,1.43
2019-04-27T19:17:38.704Z,2.10
2019-04-27T19:20:12.659Z,1.77
2019-04-27T19:22:41.682Z,1.73
2019-04-27T19:25:16.110Z,2.00
2019-04-27T19:28:03.204Z,2.90
2019-04-27T19:30:33.641Z,2.23
2019-04-27T19:33:02.515Z,2.30
2019-04-27T19:35:31.343Z,2.13
2019-04-27T19:38:00.216Z,2.30
2019-04-27T19:40:29.123Z,1.90
2019-04-27T19:42:58.820Z,1.80
2019-04-27T19:45:29.220Z,1.87
2019-04-27T19:47:58.328Z,1.57
2019-04-27T19:50:28.604Z,2.00
2019-04-27T19:52:58.710Z,1.70
2019-04-27T19:55:28.217Z,1.80
2019-04-27T19:57:57.135Z,1.77
2019-04-27T20:00:39.869Z,2.00
2019-04-27T20:03:11.067Z,1.50
2019-04-27T20:05:40.012Z,1.53
2019-04-27T20:08:10.706Z,1.70
2019-04-27T20:10:43.086Z,1.90
2019-04-27T20:13:11.011Z,1.90
2019-04-27T20:15:40.677Z,1.70
2019-04-27T20:18:10.855Z,2.00
2019-04-27T20:20:40.009Z,1.60
2019-04-27T20:23:08.816Z,1.87
2019-04-27T20:25:37.837Z,2.00
2019-04-27T20:28:06.893Z,2.00
2019-04-27T20:30:36.177Z,2.13
2019-04-27T20:33:05.364Z,2.07
2019-04-27T20:35:34.348Z,2.00
2019-04-27T20:38:03.377Z,2.17
2019-04-27T20:40:33.541Z,1.83
2019-04-27T20:43:02.528Z,1.67
2019-04-27T20:45:32.742Z,1.80
2019-04-27T20:48:01.867Z,1.80
2019-04-27T20:50:32.907Z,1.50
2019-04-27T20:53:04.263Z,1.60
2019-04-27T20:55:33.966Z,1.77
2019-04-27T20:58:03.357Z,1.80
2019-04-27T21:00:32.510Z,1.80
2019-04-27T21:03:12.035Z,1.80
2019-04-27T21:05:54.818Z,1.70
2019-04-27T21:08:28.593Z,1.53
2019-04-27T21:10:57.924Z,1.87
2019-04-27T21:13:27.066Z,1.50
2019-04-27T21:15:56.139Z,1.60
2019-04-27T21:18:26.843Z,1.50
2019-04-27T21:20:56.026Z,1.40
2019-04-27T21:23:25.002Z,1.07
2019-04-27T21:25:54.067Z,1.30
2019-04-27T21:28:23.201Z,1.47
2019-04-27T21:30:52.269Z,1.30
2019-04-27T21:33:21.638Z,1.50
2019-04-27T21:35:51.226Z,1.10
2019-04-27T21:38:20.598Z,1.37
2019-04-27T21:40:49.678Z,1.27
2019-04-27T21:43:21.614Z,1.03
2019-04-27T21:45:51.689Z,1.20
2019-04-27T21:48:21.329Z,1.00
2019-04-27T21:50:51.680Z,1.27
2019-04-27T21:53:22.845Z,1.37
2019-04-27T21:56:02.080Z,1.60
2019-04-27T21:58:33.243Z,1.20
2019-04-27T22:01:07.307Z,1.50
2019-04-27T22:03:36.612Z,1.40
2019-04-27T22:06:06.042Z,1.80
2019-04-27T22:08:35.214Z,1.47
2019-04-27T22:11:06.243Z,1.30
2019-04-27T22:13:35.237Z,1.50
2019-04-27T22:16:04.171Z,1.30
2019-04-27T22:18:33.043Z,1.27
2019-04-27T22:21:01.871Z,1.40
2019-04-27T22:23:41.804Z,1.20
2019-04-27T22:26:13.852Z,1.30
2019-04-27T22:28:47.141Z,0.93
2019-04-27T22:31:13.184Z,1.50
2019-04-27T22:33:42.973Z,1.37
2019-04-27T22:36:11.880Z,1.20
2019-04-27T22:38:41.291Z,1.10
2019-04-27T22:41:17.280Z,1.30
2019-04-27T22:44:04.019Z,1.60
2019-04-27T22:46:35.544Z,1.27
2019-04-27T22:49:04.372Z,1.13
2019-04-27T22:51:33.340Z,1.10
2019-04-27T22:54:02.215Z,1.63
2019-04-27T22:56:32.083Z,1.10
2019-04-27T22:59:11.024Z,1.20
2019-04-27T23:02:01.432Z,1.37
2019-04-27T23:04:37.919Z,1.70
2019-04-27T23:07:06.784Z,1.60
2019-04-27T23:09:35.609Z,1.30
2019-04-27T23:12:04.775Z,1.13
2019-04-27T23:14:33.644Z,1.60
2019-04-27T23:17:13.225Z,1.27
2019-04-27T23:19:42.834Z,1.30
2019-04-27T23:22:11.724Z,1.20
2019-04-27T23:24:41.481Z,1.23
2019-04-27T23:27:11.090Z,1.03
2019-04-27T23:29:41.853Z,1.50
2019-04-27T23:32:15.173Z,1.63
2019-04-27T23:34:44.040Z,1.20
2019-04-27T23:37:12.861Z,1.33
2019-04-27T23:39:41.724Z,1.30
2019-04-27T23:42:11.606Z,1.30
2019-04-27T23:44:40.516Z,1.23
2019-04-27T23:47:09.432Z,1.30
2019-04-27T23:49:38.297Z,1.37
2019-04-27T23:52:11.483Z,1.30
2019-04-27T23:54:42.764Z,1.17
2019-04-27T23:57:11.771Z,1.20
2019-04-27T23:59:41.663Z,1.30
